createdAt,value
2019-05-12T00:01:23.555Z,101260.83
2019-05-12T00:03:54.822Z,101256.92
2019-05-12T00:06:28.215Z,101264.45
2019-05-12T00:08:59.063Z,101268.45
2019-05-12T00:11:30.354Z,101270.20
2019-05-12T00:14:01.606Z,101283.39
2019-05-12T00:16:32.896Z,101290.38
2019-05-12T00:19:04.338Z,101293.94
2019-05-12T00:21:37.664Z,101297.02
2019-05-12T00:24:11.515Z,101306.62
2019-05-12T00:26:43.205Z,101308.34
2019-05-12T00:29:14.475Z,101309.19
2019-05-12T00:31:47.789Z,101305.22
2019-05-12T00:34:18.721Z,101306.44
2019-05-12T00:36:49.992Z,101309.00
2019-05-12T00:39:21.244Z,101311.15
2019-05-12T00:41:52.521Z,101319.38
2019-05-12T00:44:23.796Z,101326.34
2019-05-12T00:46:55.090Z,101329.33
2019-05-12T00:49:28.759Z,101337.12
2019-05-12T00:51:59.346Z,101333.23
2019-05-12T00:54:30.601Z,101330.55
2019-05-12T00:57:01.879Z,101333.60
2019-05-12T00:59:33.140Z,101333.60
2019-05-12T01:02:04.460Z,101338.44
2019-05-12T01:04:38.013Z,101343.68
2019-05-12T01:07:08.821Z,101344.08
2019-05-12T01:09:40.125Z,101337.09
2019-05-12T01:12:11.387Z,101350.64
2019-05-12T01:14:42.652Z,101352.38
2019-05-12T01:17:13.951Z,101359.37
2019-05-12T01:19:45.233Z,101370.73
2019-05-12T01:22:18.633Z,101363.81
2019-05-12T01:24:49.421Z,101370.83
2019-05-12T01:27:20.711Z,101364.65
2019-05-12T01:29:52.062Z,101365.95
2019-05-12T01:32:48.459Z,101365.98
2019-05-12T01:35:19.684Z,101369.52
2019-05-12T01:37:50.903Z,101376.44
2019-05-12T01:40:22.163Z,101386.49
2019-05-12T01:42:53.409Z,101393.05
2019-05-12T01:45:24.658Z,101396.51
2019-05-12T01:47:55.911Z,101396.51
2019-05-12T01:50:28.417Z,101396.51
2019-05-12T01:52:59.918Z,101403.50
2019-05-12T01:55:31.143Z,101398.69
2019-05-12T01:58:02.394Z,101408.30
2019-05-12T02:00:33.642Z,101415.33
2019-05-12T02:03:04.905Z,101423.19
2019-05-12T02:05:38.288Z,101421.88
2019-05-12T02:08:13.047Z,101425.41
2019-05-12T02:10:44.311Z,101424.56
2019-05-12T02:13:15.546Z,101432.42
2019-05-12T02:15:48.590Z,101427.23
2019-05-12T02:18:19.987Z,101436.84
2019-05-12T02:20:51.231Z,101435.16
2019-05-12T02:23:22.496Z,101442.58
2019-05-12T02:25:53.789Z,101450.03
2019-05-12T02:28:25.048Z,101450.93
2019-05-12T02:30:58.972Z,101449.12
2019-05-12T02:33:29.304Z,101458.38
2019-05-12T02:36:00.604Z,101462.75
2019-05-12T02:38:33.409Z,101474.08
2019-05-12T02:41:04.889Z,101475.83
2019-05-12T02:43:36.167Z,101474.08
2019-05-12T02:46:07.483Z,101481.02
2019-05-12T02:48:38.764Z,101480.17
2019-05-12T02:51:10.670Z,101481.02
2019-05-12T02:53:42.205Z,101487.18
2019-05-12T02:56:15.339Z,101482.43
2019-05-12T02:58:49.064Z,101487.66
2019-05-12T03:01:24.561Z,101485.10
2019-05-12T03:04:00.396Z,101484.27
2019-05-12T03:06:35.818Z,101488.25
2019-05-12T03:09:07.801Z,101493.55
2019-05-12T03:11:40.481Z,101496.16
2019-05-12T03:14:15.333Z,101500.98
2019-05-12T03:16:45.511Z,101497.09
2019-05-12T03:19:16.966Z,101502.80
2019-05-12T03:21:48.233Z,101506.31
2019-05-12T03:24:19.525Z,101513.37
2019-05-12T03:26:50.806Z,101517.74
2019-05-12T03:29:24.884Z,101527.78
2019-05-12T03:31:57.051Z,101528.70
2019-05-12T03:34:29.789Z,101535.66
2019-05-12T03:37:07.079Z,101535.66
2019-05-12T03:39:34.451Z,101533.96
2019-05-12T03:42:05.709Z,101540.06
2019-05-12T03:44:37.067Z,101548.36
2019-05-12T03:47:08.318Z,101550.08
2019-05-12T03:49:39.593Z,101557.94
2019-05-12T03:52:10.835Z,101561.86
2019-05-12T03:54:44.975Z,101561.44
2019-05-12T03:57:15.289Z,101566.23
2019-05-12T03:59:46.572Z,101567.50
2019-05-12T04:02:17.834Z,101569.25
2019-05-12T04:04:49.086Z,101574.47
2019-05-12T04:07:20.323Z,101581.44
2019-05-12T04:09:53.929Z,101581.44
2019-05-12T04:12:25.479Z,101582.31
2019-05-12T04:14:56.884Z,101590.19
2019-05-12T04:17:28.140Z,101592.34
2019-05-12T04:19:59.422Z,101588.41
2019-05-12T04:22:30.667Z,101591.47
2019-05-12T04:25:05.555Z,101596.24
2019-05-12T04:27:35.123Z,101595.31
2019-05-12T04:30:06.823Z,101596.59
2019-05-12T04:32:38.083Z,101600.53
2019-05-12T04:35:10.010Z,101608.28
2019-05-12T04:37:44.659Z,101615.67
2019-05-12T04:40:15.104Z,101619.95
2019-05-12T04:42:46.406Z,101625.61
2019-05-12T04:45:17.677Z,101632.12
2019-05-12T04:47:48.939Z,101634.23
2019-05-12T04:50:20.227Z,101636.80
2019-05-12T04:52:54.631Z,101640.68
2019-05-12T04:55:25.652Z,101642.77
2019-05-12T04:57:57.091Z,101648.83
2019-05-12T05:00:28.346Z,101651.81
2019-05-12T05:02:59.606Z,101653.48
2019-05-12T05:05:30.897Z,101663.44
2019-05-12T05:08:04.443Z,101663.77
2019-05-12T05:10:35.215Z,101672.03
2019-05-12T05:13:06.523Z,101671.52
2019-05-12T05:15:37.801Z,101674.52
2019-05-12T05:18:09.109Z,101677.97
2019-05-12T05:20:40.335Z,101690.63
2019-05-12T05:23:13.899Z,101703.73
2019-05-12T05:25:44.528Z,101699.27
2019-05-12T05:28:15.786Z,101707.96
2019-05-12T05:30:47.073Z,101713.16
2019-05-12T05:33:19.965Z,101718.77
2019-05-12T05:35:51.354Z,101720.08
2019-05-12T05:38:23.679Z,101722.17
2019-05-12T05:40:55.053Z,101724.80
2019-05-12T05:43:26.366Z,101727.41
2019-05-12T05:46:02.962Z,101731.29
2019-05-12T05:48:34.529Z,101732.52
2019-05-12T05:51:05.897Z,101737.20
2019-05-12T05:53:36.504Z,101739.71
2019-05-12T05:56:07.792Z,101740.80
2019-05-12T05:58:40.198Z,101741.48
2019-05-12T06:01:13.783Z,101746.23
2019-05-12T06:03:45.168Z,101748.33
2019-05-12T06:06:16.433Z,101752.09
2019-05-12T06:08:58.161Z,101751.52
2019-05-12T06:11:29.473Z,101757.54
2019-05-12T06:14:04.460Z,101756.48
2019-05-12T06:16:34.178Z,101762.91
2019-05-12T06:19:05.412Z,101772.00
2019-05-12T06:21:38.358Z,101768.97
2019-05-12T06:24:15.730Z,101774.95
2019-05-12T06:26:56.799Z,101776.66
2019-05-12T06:29:20.371Z,101780.02
2019-05-12T06:31:48.750Z,101785.36
2019-05-12T06:34:21.029Z,101787.39
2019-05-12T06:36:56.496Z,101788.11
2019-05-12T06:39:26.086Z,101787.11
2019-05-12T06:42:08.636Z,101789.02
2019-05-12T06:44:30.362Z,101799.84
2019-05-12T06:47:06.937Z,101806.00
2019-05-12T06:49:34.796Z,101812.70
2019-05-12T06:52:07.160Z,101809.44
2019-05-12T06:54:42.522Z,101822.39
2019-05-12T06:57:22.209Z,101819.70
2019-05-12T06:59:51.075Z,101828.81
2019-05-12T07:02:17.533Z,101830.16
2019-05-12T07:04:56.344Z,101832.91
2019-05-12T07:07:25.584Z,101833.19
2019-05-12T07:10:02.214Z,101843.57
2019-05-12T07:12:36.586Z,101834.44
2019-05-12T07:15:00.830Z,101834.16
2019-05-12T07:17:55.853Z,101833.24
2019-05-12T07:20:29.156Z,101835.88
2019-05-12T07:23:00.166Z,101838.94
2019-05-12T07:25:35.916Z,101837.68
2019-05-12T07:28:07.939Z,101833.87
2019-05-12T07:30:37.377Z,101834.77
2019-05-12T07:33:08.682Z,101832.55
2019-05-12T07:35:44.250Z,101832.59
2019-05-12T07:38:21.292Z,101840.98
2019-05-12T07:40:53.638Z,101841.36
2019-05-12T07:43:27.878Z,101846.06
2019-05-12T07:46:06.820Z,101846.54
2019-05-12T07:48:33.469Z,101849.45
2019-05-12T07:51:04.892Z,101851.94
2019-05-12T07:53:36.212Z,101856.91
2019-05-12T07:56:07.478Z,101859.05
2019-05-12T07:58:41.044Z,101862.95
2019-05-12T08:01:14.391Z,101867.03
2019-05-12T08:03:44.785Z,101865.41
2019-05-12T08:06:16.039Z,101860.55
2019-05-12T08:08:50.462Z,101863.52
2019-05-12T08:11:20.305Z,101858.06
2019-05-12T08:13:54.079Z,101856.95
2019-05-12T08:16:28.745Z,101856.20
2019-05-12T08:18:57.665Z,101855.30
2019-05-12T08:21:28.988Z,101857.33
2019-05-12T08:24:00.168Z,101857.20
2019-05-12T08:26:33.507Z,101864.02
2019-05-12T08:29:04.549Z,101866.08
2019-05-12T08:31:40.478Z,101868.91
2019-05-12T08:34:08.858Z,101864.61
2019-05-12T08:36:45.055Z,101872.64
2019-05-12T08:39:21.244Z,101875.23
2019-05-12T08:41:46.276Z,101869.84
2019-05-12T08:44:17.742Z,101870.49
2019-05-12T08:46:51.856Z,101874.55
2019-05-12T08:49:23.493Z,101874.90
2019-05-12T08:51:58.572Z,101878.87
2019-05-12T08:54:27.889Z,101876.96
2019-05-12T08:57:01.029Z,101882.78
2019-05-12T08:59:34.057Z,101892.31
2019-05-12T09:02:07.316Z,101894.72
2019-05-12T09:04:43.135Z,101891.09
2019-05-12T09:07:11.022Z,101894.41
2019-05-12T09:09:43.922Z,101892.86
2019-05-12T09:12:15.231Z,101891.77
2019-05-12T09:14:46.549Z,101895.43
2019-05-12T09:17:17.850Z,101892.91
2019-05-12T09:19:49.252Z,101886.53
2019-05-12T09:22:21.091Z,101886.12
2019-05-12T09:24:53.366Z,101880.31
2019-05-12T09:27:24.712Z,101881.95
2019-05-12T09:29:59.201Z,101883.67
2019-05-12T09:32:29.054Z,101889.86
2019-05-12T09:35:00.334Z,101892.60
2019-05-12T09:37:38.766Z,101901.22
2019-05-12T09:40:04.978Z,101895.72
2019-05-12T09:42:36.253Z,101893.61
2019-05-12T09:45:10.248Z,101897.08
2019-05-12T09:47:40.818Z,101902.00
2019-05-12T09:50:18.324Z,101901.03
2019-05-12T09:52:45.192Z,101900.92
2019-05-12T09:55:16.555Z,101901.50
2019-05-12T09:57:47.819Z,101909.06
2019-05-12T10:00:19.291Z,101912.85
2019-05-12T10:02:55.806Z,101914.82
2019-05-12T10:05:23.545Z,101920.99
2019-05-12T10:07:54.814Z,101913.97
2019-05-12T10:10:29.148Z,101916.12
2019-05-12T10:12:59.101Z,101916.88
2019-05-12T10:15:30.385Z,101909.38
2019-05-12T10:18:06.454Z,101908.34
2019-05-12T10:20:39.511Z,101908.42
2019-05-12T10:23:10.343Z,101911.97
2019-05-12T10:25:40.587Z,101916.69
2019-05-12T10:28:13.920Z,101921.17
2019-05-12T10:30:47.083Z,101917.39
2019-05-12T10:33:17.835Z,101914.73
2019-05-12T10:35:49.066Z,101918.42
2019-05-12T10:38:20.351Z,101924.57
2019-05-12T10:40:51.660Z,101921.73
2019-05-12T10:43:23.689Z,101918.27
2019-05-12T10:45:55.050Z,101925.95
2019-05-12T10:48:26.384Z,101923.67
2019-05-12T10:50:57.705Z,101928.51
2019-05-12T10:53:29.042Z,101928.56
2019-05-12T10:56:00.507Z,101926.35
2019-05-12T10:58:33.572Z,101929.20
2019-05-12T11:01:08.419Z,101923.81
2019-05-12T11:03:43.062Z,101921.91
2019-05-12T11:06:11.163Z,101920.66
2019-05-12T11:08:47.340Z,101933.38
2019-05-12T11:11:17.976Z,101928.50
2019-05-12T11:13:50.118Z,101937.63
2019-05-12T11:16:22.879Z,101938.20
2019-05-12T11:18:55.108Z,101939.55
2019-05-12T11:21:29.481Z,101935.53
2019-05-12T11:24:00.760Z,101936.45
2019-05-12T11:26:32.082Z,101935.72
2019-05-12T11:29:03.882Z,101935.42
2019-05-12T11:31:36.998Z,101944.52
2019-05-12T11:34:08.410Z,101950.17
2019-05-12T11:36:40.158Z,101946.86
2019-05-12T11:39:11.544Z,101946.27
2019-05-12T11:41:47.836Z,101950.84
2019-05-12T11:44:23.246Z,101953.69
2019-05-12T11:46:54.881Z,101941.02
2019-05-12T11:49:33.485Z,101939.13
2019-05-12T11:52:36.338Z,101947.48
2019-05-12T11:55:21.304Z,101948.17
2019-05-12T11:57:50.073Z,101954.24
2019-05-12T12:00:24.210Z,101951.09
2019-05-12T12:02:55.651Z,101960.62
2019-05-12T12:05:26.948Z,101948.35
2019-05-12T12:07:58.407Z,101946.77
2019-05-12T12:10:37.542Z,101946.34
2019-05-12T12:13:03.709Z,101949.98
2019-05-12T12:15:35.131Z,101955.86
2019-05-12T12:18:13.146Z,101951.83
2019-05-12T12:20:39.621Z,101955.74
2019-05-12T12:23:11.446Z,101948.39
2019-05-12T12:25:48.568Z,101950.58
2019-05-12T12:28:16.395Z,101952.66
2019-05-12T12:30:52.498Z,101955.62
2019-05-12T12:33:20.707Z,101958.17
2019-05-12T12:35:56.716Z,101954.80
2019-05-12T12:38:25.027Z,101946.73
2019-05-12T12:40:56.303Z,101963.95
2019-05-12T12:43:27.557Z,101954.09
2019-05-12T12:46:03.999Z,101963.69
2019-05-12T12:48:35.308Z,101963.89
2019-05-12T12:51:06.660Z,101960.80
2019-05-12T12:53:37.956Z,101956.09
2019-05-12T12:56:09.244Z,101968.20
2019-05-12T12:58:40.545Z,101964.09
2019-05-12T13:01:14.115Z,101968.78
2019-05-12T13:03:44.848Z,101964.30
2019-05-12T13:06:17.361Z,101965.31
2019-05-12T13:08:48.807Z,101961.00
2019-05-12T13:11:30.254Z,101955.86
2019-05-12T13:13:53.582Z,101957.39
2019-05-12T13:16:24.912Z,101955.57
2019-05-12T13:18:56.207Z,101964.91
2019-05-12T13:21:27.606Z,101959.64
2019-05-12T13:23:58.915Z,101967.38
2019-05-12T13:26:30.237Z,101959.24
2019-05-12T13:29:01.491Z,101954.88
2019-05-12T13:31:33.326Z,101960.70
2019-05-12T13:34:04.667Z,101960.83
2019-05-12T13:36:39.168Z,101958.59
2019-05-12T13:39:11.579Z,101965.05
2019-05-12T13:41:43.758Z,101972.02
2019-05-12T13:44:15.132Z,101976.24
2019-05-12T13:46:48.887Z,101970.69
2019-05-12T13:49:19.469Z,101964.00
2019-05-12T13:51:50.791Z,101971.36
2019-05-12T13:54:25.984Z,101969.80
2019-05-12T13:56:55.120Z,101971.62
2019-05-12T13:59:26.467Z,101976.11
2019-05-12T14:02:00.167Z,101975.05
2019-05-12T14:04:33.525Z,101979.88
2019-05-12T14:07:09.215Z,101981.16
2019-05-12T14:09:37.508Z,101981.83
2019-05-12T14:12:08.793Z,101991.50
2019-05-12T14:14:40.085Z,101991.18
2019-05-12T14:17:11.395Z,101996.88
2019-05-12T14:19:47.847Z,101999.99
2019-05-12T14:22:26.218Z,101999.58
2019-05-12T14:24:54.136Z,102001.85
2019-05-12T14:27:28.595Z,102005.78
2019-05-12T14:30:00.813Z,102007.16
2019-05-12T14:32:33.522Z,101996.59
2019-05-12T14:35:04.683Z,101995.54
2019-05-12T14:37:40.341Z,101997.05
2019-05-12T14:40:09.123Z,102005.38
2019-05-12T14:42:40.441Z,102004.60
2019-05-12T14:45:13.762Z,102004.41
2019-05-12T14:47:44.749Z,102003.59
2019-05-12T14:50:16.046Z,102011.30
2019-05-12T14:52:50.060Z,102008.31
2019-05-12T14:55:20.319Z,102010.06
2019-05-12T14:57:51.631Z,102009.52
2019-05-12T15:00:24.137Z,102007.52
2019-05-12T15:02:59.088Z,102002.33
2019-05-12T15:05:28.579Z,102012.68
2019-05-12T15:08:00.533Z,102010.77
2019-05-12T15:10:33.804Z,102010.22
2019-05-12T15:13:05.210Z,102015.29
2019-05-12T15:15:36.554Z,102016.31
2019-05-12T15:18:09.356Z,102012.12
2019-05-12T15:20:41.347Z,102006.58
2019-05-12T15:23:14.509Z,102015.70
2019-05-12T15:25:45.899Z,102008.34
2019-05-12T15:28:18.672Z,102018.04
2019-05-12T15:30:53.961Z,102022.14
2019-05-12T15:33:24.782Z,102023.88
2019-05-12T15:35:56.105Z,102020.97
2019-05-12T15:38:27.423Z,102016.87
2019-05-12T15:40:59.581Z,102019.91
2019-05-12T15:43:44.390Z,102022.02
2019-05-12T15:46:16.364Z,102034.67
2019-05-12T15:48:46.704Z,102030.27
2019-05-12T15:51:18.462Z,102028.80
2019-05-12T15:53:49.801Z,102029.08
2019-05-12T15:56:25.906Z,102030.13
2019-05-12T15:58:55.792Z,102037.36
2019-05-12T16:01:29.974Z,102035.67
2019-05-12T16:04:03.505Z,102037.95
2019-05-12T16:06:34.391Z,102052.30
2019-05-12T16:09:08.020Z,102045.09
2019-05-12T16:11:40.106Z,102056.17
2019-05-12T16:14:11.421Z,102057.11
2019-05-12T16:16:46.991Z,102051.48
2019-05-12T16:19:15.966Z,102046.81
2019-05-12T16:21:47.752Z,102055.27
2019-05-12T16:24:19.198Z,102052.45
2019-05-12T16:26:52.209Z,102050.28
2019-05-12T16:29:23.637Z,102057.30
2019-05-12T16:31:55.589Z,102049.17
2019-05-12T16:34:26.967Z,102049.78
2019-05-12T16:36:58.396Z,102058.59
2019-05-12T16:39:30.505Z,102049.83
2019-05-12T16:42:08.211Z,102050.23
2019-05-12T16:44:36.003Z,102055.06
2019-05-12T16:47:07.373Z,102057.02
2019-05-12T16:49:38.758Z,102056.45
2019-05-12T16:52:10.082Z,102058.48
2019-05-12T16:54:43.837Z,102063.73
2019-05-12T16:57:18.150Z,102064.59
2019-05-12T16:59:55.529Z,102067.78
2019-05-12T17:02:23.375Z,102064.02
2019-05-12T17:04:54.080Z,102064.15
2019-05-12T17:07:27.227Z,102059.92
2019-05-12T17:10:02.849Z,102058.62
2019-05-12T17:12:36.482Z,102062.16
2019-05-12T17:15:05.009Z,102066.92
2019-05-12T17:17:36.399Z,102065.70
2019-05-12T17:20:09.042Z,102071.23
2019-05-12T17:22:45.688Z,102073.32
2019-05-12T17:25:15.188Z,102073.53
2019-05-12T17:27:47.458Z,102074.80
2019-05-12T17:30:23.858Z,102073.27
2019-05-12T17:33:01.369Z,102072.55
2019-05-12T17:35:31.730Z,102074.88
2019-05-12T17:38:01.449Z,102086.38
2019-05-12T17:40:33.894Z,102095.45
2019-05-12T17:43:11.381Z,102092.20
2019-05-12T17:45:38.455Z,102087.31
2019-05-12T17:48:09.798Z,102085.78
2019-05-12T17:50:46.702Z,102091.74
2019-05-12T17:53:17.677Z,102091.02
2019-05-12T17:55:51.375Z,102088.78
2019-05-12T17:58:20.653Z,102085.86
2019-05-12T18:00:52.123Z,102093.51
2019-05-12T18:03:25.643Z,102094.88
2019-05-12T18:05:56.735Z,102094.13
2019-05-12T18:08:32.784Z,102104.51
2019-05-12T18:11:03.558Z,102103.33
2019-05-12T18:13:34.605Z,102112.73
2019-05-12T18:16:11.467Z,102109.92
2019-05-12T18:18:39.208Z,102109.30
2019-05-12T18:21:13.105Z,102108.11
2019-05-12T18:23:43.752Z,102115.76
2019-05-12T18:26:16.472Z,102113.35
2019-05-12T18:28:47.842Z,102114.89
2019-05-12T18:31:19.146Z,102117.34
2019-05-12T18:33:53.733Z,102117.98
2019-05-12T18:36:23.729Z,102121.65
2019-05-12T18:39:03.766Z,102119.13
2019-05-12T18:41:28.213Z,102127.25
2019-05-12T18:43:59.565Z,102124.67
2019-05-12T18:46:36.130Z,102131.30
2019-05-12T18:49:11.981Z,102135.18
2019-05-12T18:51:36.986Z,102132.77
2019-05-12T18:54:10.270Z,102139.44
2019-05-12T18:56:44.045Z,102140.02
2019-05-12T18:59:16.360Z,102135.66
2019-05-12T19:01:47.866Z,102134.58
2019-05-12T19:04:19.203Z,102136.95
2019-05-12T19:06:50.518Z,102147.19
2019-05-12T19:09:23.799Z,102145.11
2019-05-12T19:11:54.853Z,102146.20
2019-05-12T19:14:34.924Z,102148.57
2019-05-12T19:16:59.155Z,102153.48
2019-05-12T19:19:30.533Z,102157.89
2019-05-12T19:22:08.676Z,102158.70
2019-05-12T19:24:36.275Z,102164.98
2019-05-12T19:27:10.446Z,102169.89
2019-05-12T19:29:48.178Z,102172.48
2019-05-12T19:32:14.458Z,102172.24
2019-05-12T19:34:46.254Z,102182.00
2019-05-12T19:37:19.576Z,102186.89
2019-05-12T19:39:50.838Z,102189.30
2019-05-12T19:42:24.282Z,102193.84
2019-05-12T19:44:59.331Z,102199.05
2019-05-12T19:47:34.549Z,102206.67
2019-05-12T19:50:07.249Z,102200.36
2019-05-12T19:52:34.402Z,102201.67
2019-05-12T19:55:05.835Z,102205.64
2019-05-12T19:57:37.175Z,102207.05
2019-05-12T20:00:09.289Z,102214.62
2019-05-12T20:02:40.605Z,102213.27
2019-05-12T20:05:15.025Z,102216.93
2019-05-12T20:07:45.257Z,102220.19
2019-05-12T20:10:17.382Z,102223.27
2019-05-12T20:12:53.895Z,102223.44
2019-05-12T20:15:23.972Z,102228.27
2019-05-12T20:17:54.691Z,102233.55
2019-05-12T20:20:35.786Z,102244.72
2019-05-12T20:22:58.994Z,102244.11
2019-05-12T20:25:30.242Z,102244.63
2019-05-12T20:28:05.538Z,102247.02
2019-05-12T20:30:34.725Z,102254.09
2019-05-12T20:33:08.168Z,102255.14
2019-05-12T20:35:45.114Z,102252.98
2019-05-12T20:38:14.795Z,102257.58
2019-05-12T20:40:46.025Z,102262.02
2019-05-12T20:43:17.302Z,102264.24
2019-05-12T20:45:48.572Z,102269.55
2019-05-12T20:48:25.086Z,102271.03
2019-05-12T20:50:52.814Z,102274.70
2019-05-12T20:53:31.503Z,102273.51
2019-05-12T20:55:57.054Z,102278.84
2019-05-12T20:58:34.005Z,102277.98
2019-05-12T21:01:04.493Z,102278.02
2019-05-12T21:03:34.701Z,102283.39
2019-05-12T21:06:06.006Z,102287.77
2019-05-12T21:08:37.349Z,102290.42
2019-05-12T21:11:08.748Z,102290.53
2019-05-12T21:13:40.043Z,102288.42
2019-05-12T21:16:17.489Z,102300.32
2019-05-12T21:18:50.367Z,102301.30
2019-05-12T21:21:17.415Z,102300.48
2019-05-12T21:23:53.681Z,102305.38
2019-05-12T21:26:21.686Z,102310.66
2019-05-12T21:28:53.902Z,102312.95
2019-05-12T21:31:29.322Z,102310.80
2019-05-12T21:33:58.295Z,102316.95
2019-05-12T21:36:29.725Z,102317.02
2019-05-12T21:39:06.059Z,102316.20
2019-05-12T21:41:34.477Z,102311.39
2019-05-12T21:44:11.001Z,102317.56
2019-05-12T21:46:47.481Z,102318.91
2019-05-12T21:49:12.917Z,102310.19
2019-05-12T21:51:44.864Z,102319.02
2019-05-12T21:54:16.154Z,102322.56
2019-05-12T21:56:49.375Z,102325.25
2019-05-12T21:59:20.473Z,102329.23
2019-05-12T22:01:53.375Z,102328.31
2019-05-12T22:04:24.788Z,102332.33
2019-05-12T22:06:57.059Z,102332.39
2019-05-12T22:09:32.977Z,102335.42
2019-05-12T22:12:03.771Z,102335.91
2019-05-12T22:14:36.538Z,102342.09
2019-05-12T22:17:08.889Z,102348.22
2019-05-12T22:19:40.132Z,102338.20
2019-05-12T22:22:13.474Z,102350.48
2019-05-12T22:24:44.383Z,102346.13
2019-05-12T22:27:21.690Z,102349.21
2019-05-12T22:29:48.595Z,102347.92
2019-05-12T22:32:25.413Z,102350.56
2019-05-12T22:34:54.473Z,102359.75
2019-05-12T22:37:29.287Z,102359.33
2019-05-12T22:39:59.550Z,102368.99
2019-05-12T22:42:30.892Z,102367.27
2019-05-12T22:45:03.857Z,102372.98
2019-05-12T22:47:35.168Z,102371.66
2019-05-12T22:50:06.613Z,102369.03
2019-05-12T22:52:39.118Z,102372.58
2019-05-12T22:55:13.819Z,102375.20
2019-05-12T22:57:44.424Z,102369.52
2019-05-12T23:00:19.193Z,102380.02
2019-05-12T23:02:50.680Z,102382.66
2019-05-12T23:05:24.031Z,102380.92
2019-05-12T23:07:55.072Z,102384.41
2019-05-12T23:10:26.357Z,102384.84
2019-05-12T23:13:01.789Z,102379.59
2019-05-12T23:15:30.613Z,102382.22
2019-05-12T23:18:04.013Z,102386.19
2019-05-12T23:20:35.696Z,102379.17
2019-05-12T23:23:09.175Z,102387.08
2019-05-12T23:25:40.003Z,102390.12
2019-05-12T23:28:11.304Z,102384.45
2019-05-12T23:30:48.126Z,102387.50
2019-05-12T23:33:15.607Z,102385.34
2019-05-12T23:35:46.903Z,102388.84
2019-05-12T23:38:20.942Z,102392.34
2019-05-12T23:40:51.128Z,102392.33
2019-05-12T23:43:23.819Z,102395.84
2019-05-12T23:45:55.233Z,102390.56
2019-05-12T23:48:26.479Z,102391.02
2019-05-12T23:50:57.781Z,102398.88
2019-05-12T23:53:29.174Z,102406.76
2019-05-12T23:56:00.494Z,102405.42
2019-05-12T23:58:31.860Z,102409.81
